Raymond, Canada
Current Conditions -  °F | °C
As of 10:00 PM on Sunday 21 Dec 2014 (Local Time) from CYQL Reporting Station
Few Clouds Few Clouds  
Wind Chill: 21°   Ceiling: Unl
Heat Index: 28°   Visibility: 15mi
Dew Point: 23°   Wind: 7mph
Humidity: 80%   Direction: 290°WNW
Pressure: 29.65"   Gusts: NA
Location:  49.47°N, 112.66°W
Report Text: CYQL 220500Z 29006KT 15SM FEW130 M02/M05 A2965 RMK AC2 LAST STFD OBS/NXT 221300Z SLP069
Loading
Personal Weather Stations






























Interactive Weather Map New forecast layout! Learn more

10-Day Weather Forecast

Advertisements
Track Severe Weather on mobile